Time;durP1;ratioP1;P1;durP2;ratioP2;P2;SDS_P1;SDS_P2;PMS_P1;PMS_P2;Temp;Humidity;BMP_temperature;BMP_pressure;BME280_temperature;BME280_humidity;BME280_pressure;Samples;Min_cycle;Max_cycle;Signal;HPM_P1;HPM_P2
2022/04/01 00:02:06;;;;;;;2.53;1.90;;;18.00;41.70;;;;;;5052986;28;20175;-91
2022/04/01 00:04:32;;;;;;;2.17;1.80;;;18.00;41.60;;;;;;5052617;28;20181;-91
2022/04/01 00:06:57;;;;;;;1.90;1.80;;;18.20;41.60;;;;;;5053133;28;20237;-91
2022/04/01 00:09:24;;;;;;;2.17;1.97;;;18.00;41.50;;;;;;5053092;28;20506;-92
2022/04/01 00:11:51;;;;;;;2.90;2.20;;;18.00;41.50;;;;;;5054619;28;20256;-90
2022/04/01 00:14:17;;;;;;;2.10;1.90;;;18.00;41.60;;;;;;5053914;28;20180;-91
2022/04/01 00:16:43;;;;;;;1.90;1.80;;;18.10;41.40;;;;;;5054598;28;20179;-91
2022/04/01 00:19:08;;;;;;;3.17;1.80;;;18.10;41.80;;;;;;5053939;28;20180;-91
2022/04/01 00:21:35;;;;;;;2.07;1.90;;;18.00;41.30;;;;;;5053930;28;20279;-90
2022/04/01 00:24:01;;;;;;;2.07;1.80;;;18.00;41.40;;;;;;5053749;28;20183;-91
2022/04/01 00:26:27;;;;;;;2.00;1.80;;;17.90;41.50;;;;;;5052322;28;20620;-91
2022/04/01 00:28:53;;;;;;;2.13;1.90;;;17.90;41.50;;;;;;5053075;28;20631;-91
2022/04/01 00:31:20;;;;;;;2.87;1.70;;;17.90;41.40;;;;;;5052300;28;20266;-92
2022/04/01 00:33:45;;;;;;;2.43;1.70;;;17.80;41.50;;;;;;5054887;28;20196;-91
2022/04/01 00:36:11;;;;;;;2.00;1.80;;;17.80;41.50;;;;;;5055048;28;20789;-91
2022/04/01 00:38:37;;;;;;;1.70;1.57;;;17.80;41.50;;;;;;5054551;28;20618;-92
2022/04/01 00:41:03;;;;;;;2.53;1.70;;;17.80;41.50;;;;;;5054834;28;20180;-92
2022/04/01 00:43:32;;;;;;;2.03;1.83;;;17.60;41.50;;;;;;5054733;28;20194;-92
2022/04/01 00:45:58;;;;;;;1.73;1.63;;;17.80;41.50;;;;;;5053290;28;20566;-92
2022/04/01 00:48:25;;;;;;;1.73;1.60;;;17.80;41.40;;;;;;5052529;28;20226;-91
2022/04/01 00:50:51;;;;;;;2.37;1.77;;;17.60;41.50;;;;;;5053422;28;20205;-92
2022/04/01 00:53:22;;;;;;;1.60;1.50;;;17.60;41.50;;;;;;5053085;28;20184;-91
2022/04/01 00:55:49;;;;;;;2.20;1.90;;;17.50;41.70;;;;;;5054306;28;20176;-92
2022/04/01 00:58:15;;;;;;;2.07;1.90;;;17.50;41.60;;;;;;5053528;28;20172;-91
2022/04/01 01:00:41;;;;;;;1.73;1.60;;;17.50;41.60;;;;;;5053880;28;20176;-92
2022/04/01 01:03:07;;;;;;;2.23;1.77;;;17.50;41.60;;;;;;5054099;28;20184;-92
2022/04/01 01:05:33;;;;;;;1.87;1.70;;;17.60;41.60;;;;;;5052615;28;20183;-92
2022/04/01 01:08:04;;;;;;;2.43;1.80;;;17.60;41.50;;;;;;5054185;28;20177;-92
2022/04/01 01:10:31;;;;;;;1.70;1.60;;;17.50;41.50;;;;;;5052298;28;20261;-93
2022/04/01 01:12:57;;;;;;;2.00;1.80;;;17.40;41.60;;;;;;5052540;28;20218;-92
2022/04/01 01:15:25;;;;;;;1.90;1.70;;;17.40;41.70;;;;;;5052804;28;20422;-92
2022/04/01 01:17:51;;;;;;;1.90;1.60;;;17.30;41.70;;;;;;5054226;28;20176;-91
2022/04/01 01:20:17;;;;;;;2.00;1.80;;;17.30;41.70;;;;;;5054478;28;20754;-92
2022/04/01 01:22:44;;;;;;;2.10;1.57;;;17.30;41.60;;;;;;5054527;28;20168;-93
2022/04/01 01:25:12;;;;;;;1.67;1.57;;;17.30;41.60;;;;;;5054054;28;20194;-93
2022/04/01 01:27:39;;;;;;;1.90;1.80;;;17.30;41.60;;;;;;5054003;28;20176;-92
2022/04/01 01:33:27;;;;;;;3.30;1.87;;;17.10;41.50;;;;;;5004552;28;20233;-93
2022/04/01 01:35:53;;;;;;;2.00;1.70;;;17.10;41.60;;;;;;5050455;28;20177;-92
2022/04/01 01:38:19;;;;;;;2.00;1.50;;;17.20;41.60;;;;;;5051137;28;20593;-93
2022/04/01 01:40:46;;;;;;;1.80;1.70;;;17.20;41.50;;;;;;5051949;28;20177;-93
2022/04/01 01:43:15;;;;;;;2.10;1.80;;;17.20;41.50;;;;;;5052856;28;20177;-92
2022/04/01 01:45:41;;;;;;;1.77;1.50;;;17.10;41.40;;;;;;5053320;28;20461;-94
2022/04/01 01:48:06;;;;;;;2.23;1.80;;;17.10;41.40;;;;;;5053674;28;20534;-92
2022/04/01 01:56:01;;;;;;;2.17;1.60;;;17.10;41.40;;;;;;5052926;28;20245;-92
2022/04/01 01:58:27;;;;;;;1.83;1.70;;;17.00;41.30;;;;;;5052934;28;20180;-93
2022/04/01 02:00:53;;;;;;;1.80;1.60;;;17.00;41.30;;;;;;5052279;28;20183;-93
2022/04/01 02:03:19;;;;;;;1.80;1.47;;;16.80;41.40;;;;;;5057877;28;20172;-92
2022/04/01 02:05:45;;;;;;;1.70;1.60;;;16.80;41.40;;;;;;5053362;28;20186;-92
2022/04/01 02:08:11;;;;;;;2.33;1.80;;;16.70;41.50;;;;;;5053531;28;20203;-93
2022/04/01 02:10:37;;;;;;;1.90;1.70;;;16.70;41.50;;;;;;5054505;28;20596;-93
2022/04/01 02:13:03;;;;;;;2.27;1.70;;;16.70;41.50;;;;;;5055335;28;20275;-93
2022/04/01 02:15:29;;;;;;;2.10;1.90;;;16.60;41.40;;;;;;5054112;28;20480;-92
2022/04/01 02:17:55;;;;;;;1.77;1.67;;;16.70;41.40;;;;;;5053754;28;20546;-93
2022/04/01 02:20:21;;;;;;;2.00;1.80;;;16.60;41.30;;;;;;5052922;28;20184;-92
2022/04/01 02:22:46;;;;;;;2.13;1.60;;;16.50;41.40;;;;;;5052878;28;20289;-92
2022/04/01 02:25:12;;;;;;;2.13;1.80;;;16.60;41.40;;;;;;5053402;28;20176;-93
2022/04/01 02:27:38;;;;;;;1.90;1.67;;;16.50;41.40;;;;;;5058095;28;20645;-92
2022/04/01 02:30:12;;;;;;;2.90;1.90;;;16.40;41.50;;;;;;5057359;28;20462;-93
2022/04/01 02:32:39;;;;;;;2.20;1.67;;;16.30;41.40;;;;;;5057357;28;20190;-92
2022/04/01 02:35:05;;;;;;;2.90;1.60;;;16.30;41.40;;;;;;5056994;28;20422;-92
2022/04/01 02:37:31;;;;;;;1.97;1.80;;;16.30;41.40;;;;;;5057573;28;20247;-93
2022/04/01 02:39:58;;;;;;;2.67;2.00;;;16.30;41.40;;;;;;5057179;28;20175;-94
2022/04/01 02:42:23;;;;;;;1.60;1.50;;;16.20;41.40;;;;;;5055726;28;20547;-92
2022/04/01 02:44:49;;;;;;;2.20;1.63;;;16.30;41.30;;;;;;5055396;28;20191;-92
2022/04/01 02:47:15;;;;;;;1.80;1.50;;;16.50;41.20;;;;;;5055073;28;20291;-92
2022/04/01 02:49:40;;;;;;;2.00;1.60;;;16.60;40.90;;;;;;5057781;28;20208;-92
2022/04/01 02:52:06;;;;;;;1.40;1.30;;;16.60;40.90;;;;;;5056275;28;20210;-92
2022/04/01 02:54:35;;;;;;;2.40;1.60;;;16.70;40.80;;;;;;5057356;28;20237;-93
2022/04/01 02:57:02;;;;;;;1.90;1.50;;;16.70;40.70;;;;;;5056607;28;20229;-92
2022/04/01 02:59:29;;;;;;;2.87;1.87;;;16.70;40.70;;;;;;5056374;28;20168;-93
2022/04/01 03:01:55;;;;;;;2.20;1.73;;;16.80;40.60;;;;;;5056054;28;20180;-92
2022/04/01 03:04:22;;;;;;;1.40;1.30;;;16.70;40.50;;;;;;5054338;28;20180;-92
2022/04/01 03:06:49;;;;;;;1.40;1.30;;;16.70;40.50;;;;;;5054135;28;20189;-92
2022/04/01 03:09:15;;;;;;;1.83;1.60;;;16.60;40.60;;;;;;5055828;28;20172;-89
2022/04/01 03:11:42;;;;;;;1.73;1.40;;;16.60;40.60;;;;;;5056202;28;20203;-89
2022/04/01 03:14:10;;;;;;;2.10;1.30;;;16.50;40.50;;;;;;5056688;28;20583;-89
2022/04/01 03:16:37;;;;;;;1.50;1.40;;;16.50;40.60;;;;;;5055962;28;20171;-89
2022/04/01 03:19:04;;;;;;;1.37;1.27;;;16.40;40.60;;;;;;5056685;28;20176;-90
2022/04/01 03:21:30;;;;;;;1.73;1.40;;;16.40;40.70;;;;;;5055189;28;20176;-89
2022/04/01 03:23:57;;;;;;;1.30;1.20;;;16.30;40.70;;;;;;5055357;28;20332;-88
2022/04/01 03:26:23;;;;;;;1.73;1.27;;;16.30;40.70;;;;;;5053744;28;20581;-89
2022/04/01 03:28:49;;;;;;;1.37;1.27;;;16.20;41.20;;;;;;5051831;28;20614;-89
2022/04/01 03:31:15;;;;;;;2.37;1.30;;;16.10;40.80;;;;;;5053272;28;20533;-91
2022/04/01 03:33:41;;;;;;;1.43;1.33;;;16.00;40.90;;;;;;5054298;28;20184;-87
2022/04/01 03:36:08;;;;;;;1.47;1.20;;;16.00;40.90;;;;;;5055294;28;20168;-88
2022/04/01 03:38:35;;;;;;;1.50;1.40;;;15.90;41.00;;;;;;5054464;28;20176;-88
2022/04/01 03:41:02;;;;;;;1.47;1.30;;;15.80;41.00;;;;;;5055007;28;20222;-88
2022/04/01 03:43:29;;;;;;;1.40;1.20;;;15.70;41.10;;;;;;5054330;28;20182;-88
2022/04/01 03:45:58;;;;;;;2.40;1.47;;;15.60;41.20;;;;;;5053717;28;20185;-88
2022/04/01 03:48:42;;;;;;;1.17;1.00;;;15.50;41.20;;;;;;5052605;28;20184;-88
2022/04/01 03:51:11;;;;;;;1.87;1.30;;;15.50;41.30;;;;;;5053331;28;20364;-88
2022/04/01 03:53:41;;;;;;;1.20;1.10;;;15.30;41.30;;;;;;5052666;28;20175;-89
2022/04/01 03:56:07;;;;;;;1.30;1.20;;;15.20;41.30;;;;;;5053707;28;20173;-88
2022/04/01 03:58:34;;;;;;;1.67;1.33;;;15.10;41.40;;;;;;5055012;28;20209;-89
2022/04/01 04:01:02;;;;;;;1.27;1.17;;;15.00;41.50;;;;;;5055685;28;20493;-90
2022/04/01 04:03:29;;;;;;;1.40;1.30;;;15.00;41.50;;;;;;5053594;28;20228;-88
2022/04/01 04:05:56;;;;;;;2.43;1.30;;;16.00;41.40;;;;;;5053446;28;20260;-88
2022/04/01 04:08:23;;;;;;;1.87;1.33;;;18.40;39.00;;;;;;5053826;28;20206;-89
2022/04/01 04:10:53;;;;;;;1.23;1.13;;;18.40;38.20;;;;;;5052552;28;20605;-89
2022/04/01 04:13:20;;;;;;;2.40;1.07;;;18.70;37.90;;;;;;5050824;28;20179;-88
2022/04/01 04:16:15;;;;;;;1.80;1.30;;;18.90;37.60;;;;;;5051037;28;20248;-88
2022/04/01 04:18:45;;;;;;;1.20;1.10;;;19.30;37.40;;;;;;5053685;28;20540;-88
2022/04/01 04:21:16;;;;;;;1.20;1.10;;;19.70;37.00;;;;;;5053205;28;20572;-88
2022/04/01 04:23:47;;;;;;;1.20;1.10;;;20.50;36.40;;;;;;5053603;28;20203;-89
2022/04/01 04:26:24;;;;;;;1.63;1.43;;;20.50;36.10;;;;;;5052917;28;20261;-88
2022/04/01 04:28:58;;;;;;;1.30;1.20;;;21.10;35.80;;;;;;5052603;28;20182;-89
2022/04/01 04:31:29;;;;;;;1.13;1.00;;;21.50;35.50;;;;;;5052127;28;20477;-89
2022/04/01 04:33:56;;;;;;;1.20;1.10;;;21.80;35.20;;;;;;5050602;28;20193;-89
2022/04/01 04:36:33;;;;;;;1.40;1.20;;;22.20;34.90;;;;;;5049949;28;20457;-90
2022/04/01 04:39:02;;;;;;;1.30;1.20;;;22.30;34.70;;;;;;5050370;28;20245;-89
2022/04/01 04:41:28;;;;;;;1.20;1.10;;;22.30;34.70;;;;;;5051140;28;20172;-89
2022/04/01 04:43:54;;;;;;;1.20;1.10;;;22.50;34.70;;;;;;5052053;28;20187;-89
2022/04/01 04:46:21;;;;;;;1.20;1.10;;;23.00;34.50;;;;;;5051320;28;20425;-89
2022/04/01 04:48:48;;;;;;;1.20;1.10;;;23.00;34.20;;;;;;5051310;28;20583;-89
2022/04/01 04:51:16;;;;;;;0.90;0.90;;;23.10;34.30;;;;;;5050217;28;20199;-90
2022/04/01 04:53:44;;;;;;;3.20;1.20;;;23.10;34.20;;;;;;5051512;28;20209;-90
2022/04/01 04:56:10;;;;;;;1.47;1.20;;;23.30;34.10;;;;;;5050080;28;20189;-89
2022/04/01 04:58:40;;;;;;;1.13;1.03;;;23.50;34.00;;;;;;5050608;28;20170;-89
2022/04/01 05:01:21;;;;;;;1.30;1.20;;;23.60;33.80;;;;;;5051396;28;20170;-92
2022/04/01 05:03:52;;;;;;;1.83;1.00;;;23.70;33.90;;;;;;5049990;28;20188;-92
2022/04/01 05:06:25;;;;;;;0.90;0.90;;;23.50;33.90;;;;;;5050639;28;20176;-92
2022/04/01 05:09:23;;;;;;;1.10;1.00;;;23.70;34.00;;;;;;5049498;28;20205;-92
2022/04/01 05:12:07;;;;;;;0.97;0.90;;;23.70;33.90;;;;;;5048907;28;20210;-92
2022/04/01 05:14:49;;;;;;;1.60;1.20;;;24.00;33.70;;;;;;5049248;28;20408;-93
2022/04/01 05:17:36;;;;;;;1.83;1.00;;;24.00;33.50;;;;;;5047592;28;20239;-92
2022/04/01 05:20:17;;;;;;;1.17;1.00;;;23.70;33.60;;;;;;5016833;28;20176;-92
2022/04/01 05:22:47;;;;;;;1.47;0.90;;;23.30;34.00;;;;;;5047874;28;20171;-92
2022/04/01 05:25:20;;;;;;;1.20;1.10;;;22.90;34.20;;;;;;5046936;28;20172;-92
2022/04/01 05:27:57;;;;;;;1.20;1.10;;;22.30;34.50;;;;;;5046303;28;20185;-93
2022/04/01 05:30:28;;;;;;;1.30;1.20;;;21.80;34.90;;;;;;5046931;28;20200;-91
2022/04/01 05:33:16;;;;;;;1.87;1.20;;;21.40;35.20;;;;;;5046644;28;20184;-92
2022/04/01 05:35:51;;;;;;;2.10;0.93;;;20.90;35.80;;;;;;5047223;28;20284;-93
2022/04/01 05:38:19;;;;;;;1.30;1.10;;;20.50;36.10;;;;;;5048175;28;20558;-92
2022/04/01 05:40:46;;;;;;;2.23;1.20;;;20.20;36.50;;;;;;5048752;28;20179;-93
2022/04/01 05:43:14;;;;;;;1.77;1.30;;;19.90;36.70;;;;;;5047600;28;20177;-93
2022/04/01 05:45:44;;;;;;;1.73;1.00;;;19.40;37.20;;;;;;5048210;28;20483;-93
2022/04/01 05:48:11;;;;;;;0.97;0.93;;;19.40;37.50;;;;;;5046819;28;20594;-93
2022/04/01 05:50:37;;;;;;;1.33;1.00;;;19.60;37.70;;;;;;5047698;28;20285;-94
2022/04/01 05:53:04;;;;;;;2.03;1.07;;;19.80;37.50;;;;;;5046627;28;20451;-92
2022/04/01 05:55:31;;;;;;;1.20;0.90;;;20.30;37.50;;;;;;5048118;28;20184;-93
2022/04/01 05:57:56;;;;;;;1.13;1.03;;;20.90;36.50;;;;;;5049171;28;20177;-93
2022/04/01 06:00:23;;;;;;;1.43;1.00;;;21.30;36.00;;;;;;5051990;28;20172;-93
2022/04/01 06:02:54;;;;;;;1.10;1.00;;;21.50;35.70;;;;;;5051069;28;20176;-92
2022/04/01 06:05:33;;;;;;;1.10;1.00;;;21.80;35.50;;;;;;5051122;28;20175;-92
2022/04/01 06:08:06;;;;;;;1.30;1.20;;;22.00;35.30;;;;;;5051598;28;20181;-92
2022/04/01 06:10:50;;;;;;;1.47;0.97;;;22.30;35.00;;;;;;5051692;28;20223;-93
2022/04/01 06:13:34;;;;;;;2.20;1.20;;;22.40;34.80;;;;;;5050647;28;20367;-92
2022/04/01 06:16:11;;;;;;;1.27;1.07;;;22.70;34.60;;;;;;5050791;28;20175;-92
2022/04/01 06:18:44;;;;;;;1.37;1.10;;;22.80;34.40;;;;;;5052780;28;20171;-92
2022/04/01 06:21:15;;;;;;;1.10;1.00;;;23.00;34.30;;;;;;5051249;28;20271;-93
2022/04/01 06:24:10;;;;;;;1.20;1.10;;;23.30;34.20;;;;;;5050658;28;20176;-92
2022/04/01 06:27:02;;;;;;;1.30;1.07;;;23.50;34.00;;;;;;5050277;28;20168;-93
2022/04/01 06:29:39;;;;;;;1.80;1.13;;;23.40;34.10;;;;;;5050813;28;20439;-92
2022/04/01 06:32:13;;;;;;;1.10;1.00;;;23.30;34.00;;;;;;5051423;28;20199;-92
2022/04/01 06:35:07;;;;;;;2.30;1.30;;;23.30;34.20;;;;;;5050333;28;20308;-92
2022/04/01 06:37:51;;;;;;;3.07;1.30;;;23.30;34.20;;;;;;5054506;28;20181;-92
2022/04/01 06:40:20;;;;;;;2.10;1.00;;;23.50;34.10;;;;;;5051854;28;20268;-93
2022/04/01 06:42:46;;;;;;;1.40;1.10;;;23.50;34.00;;;;;;5051423;28;20239;-92
2022/04/01 06:45:15;;;;;;;1.20;1.10;;;23.40;34.00;;;;;;5051420;28;20281;-91
2022/04/01 06:47:41;;;;;;;1.50;1.17;;;23.20;34.10;;;;;;5050632;28;20174;-90
2022/04/01 06:50:09;;;;;;;1.70;1.10;;;23.00;34.30;;;;;;5050205;28;20180;-91
2022/04/01 06:52:35;;;;;;;1.10;1.00;;;23.10;34.50;;;;;;5049888;28;20177;-91
2022/04/01 06:55:02;;;;;;;3.30;1.30;;;22.90;34.40;;;;;;5050182;28;20176;-91
2022/04/01 06:57:27;;;;;;;3.13;1.10;;;22.80;34.60;;;;;;5050942;28;20204;-91
2022/04/01 06:59:53;;;;;;;2.47;1.00;;;22.60;34.60;;;;;;5050955;28;20382;-90
2022/04/01 07:02:19;;;;;;;2.00;1.53;;;22.40;34.80;;;;;;5049712;28;20216;-91
2022/04/01 07:04:45;;;;;;;1.77;1.10;;;22.10;34.90;;;;;;5048409;28;20172;-89
2022/04/01 07:07:10;;;;;;;1.83;1.30;;;22.10;35.10;;;;;;5050030;28;20506;-90
2022/04/01 07:09:36;;;;;;;1.57;1.30;;;21.90;35.10;;;;;;5049270;28;20177;-91
2022/04/01 07:12:02;;;;;;;3.13;1.30;;;21.80;35.20;;;;;;5048749;28;20226;-91
2022/04/01 07:14:31;;;;;;;1.60;1.10;;;21.70;35.20;;;;;;5048984;28;20167;-91
2022/04/01 07:16:59;;;;;;;1.13;1.00;;;21.60;35.30;;;;;;5050050;28;20383;-93
2022/04/01 07:19:25;;;;;;;1.40;1.30;;;21.60;35.30;;;;;;5050887;28;20180;-93
2022/04/01 07:21:51;;;;;;;1.93;1.20;;;21.70;35.30;;;;;;5049483;28;20186;-93
2022/04/01 07:24:17;;;;;;;1.20;1.10;;;21.70;35.20;;;;;;5049391;28;20212;-93
2022/04/01 07:26:44;;;;;;;1.43;1.20;;;21.90;35.10;;;;;;5050984;28;20200;-93
2022/04/01 07:29:14;;;;;;;2.10;1.37;;;21.90;34.90;;;;;;5052154;28;20591;-93
2022/04/01 07:34:36;;;;;;;1.77;1.10;;;22.60;34.50;;;;;;5051046;28;20546;-93
2022/04/01 07:37:04;;;;;;;1.50;1.03;;;22.70;34.20;;;;;;5049548;28;20426;-93
2022/04/01 07:39:31;;;;;;;1.33;1.23;;;22.90;34.20;;;;;;5050324;28;20169;-92
2022/04/01 07:41:56;;;;;;;1.67;1.20;;;23.00;34.10;;;;;;5049668;28;20175;-92
2022/04/01 07:44:22;;;;;;;2.03;1.40;;;23.00;33.90;;;;;;5050962;28;20184;-93
2022/04/01 07:46:50;;;;;;;1.60;1.20;;;22.70;34.00;;;;;;5049436;28;20173;-93
2022/04/01 07:49:17;;;;;;;1.53;1.40;;;22.30;34.20;;;;;;5049129;28;20177;-94
2022/04/01 07:51:43;;;;;;;1.30;1.00;;;22.00;34.50;;;;;;5049857;28;20239;-91
2022/04/01 07:54:10;;;;;;;1.33;1.23;;;21.50;34.80;;;;;;5047921;28;20179;-91
2022/04/01 07:56:37;;;;;;;1.63;1.30;;;21.10;35.10;;;;;;5047106;28;20183;-91
2022/04/01 07:59:04;;;;;;;1.40;1.20;;;20.90;35.50;;;;;;5048175;28;20224;-92
2022/04/01 08:01:30;;;;;;;1.50;1.40;;;21.00;35.60;;;;;;5047463;28;20177;-91
2022/04/01 08:03:56;;;;;;;1.40;1.30;;;21.40;35.40;;;;;;5047592;28;20675;-91
2022/04/01 08:06:21;;;;;;;1.30;1.20;;;21.60;35.00;;;;;;5048480;28;20176;-91
2022/04/01 08:08:47;;;;;;;1.57;1.30;;;21.80;34.80;;;;;;5045998;28;20172;-91
2022/04/01 08:11:13;;;;;;;1.53;1.43;;;22.10;34.60;;;;;;5047707;28;20635;-92
2022/04/01 08:13:39;;;;;;;1.40;1.30;;;22.40;34.30;;;;;;5047618;28;20164;-92
2022/04/01 08:16:05;;;;;;;1.53;1.43;;;22.60;34.10;;;;;;5046364;28;20183;-90
2022/04/01 08:18:30;;;;;;;1.70;1.30;;;22.90;33.90;;;;;;5049254;28;20174;-91
2022/04/01 08:20:56;;;;;;;1.50;1.40;;;23.10;33.70;;;;;;5048350;28;20461;-91
2022/04/01 08:23:22;;;;;;;1.57;1.37;;;23.50;33.50;;;;;;5048716;28;20193;-93
2022/04/01 08:25:48;;;;;;;1.40;1.30;;;23.60;33.40;;;;;;5045517;28;20421;-93
2022/04/01 08:28:15;;;;;;;1.43;1.23;;;23.60;33.20;;;;;;5048051;28;20173;-93
2022/04/01 08:30:41;;;;;;;1.70;1.50;;;23.50;33.10;;;;;;5048619;28;20264;-93
2022/04/01 08:33:07;;;;;;;1.63;1.30;;;23.50;33.30;;;;;;5048390;28;20454;-93
2022/04/01 08:35:33;;;;;;;1.57;1.47;;;23.80;33.20;;;;;;5049752;28;20181;-93
2022/04/01 08:38:00;;;;;;;2.10;1.40;;;23.90;33.10;;;;;;5049512;28;20422;-93
2022/04/01 08:40:27;;;;;;;1.63;1.47;;;23.50;33.10;;;;;;5048539;28;20186;-93
2022/04/01 08:42:53;;;;;;;1.50;1.30;;;23.50;33.20;;;;;;5048167;28;20291;-93
2022/04/01 08:45:20;;;;;;;1.47;1.20;;;23.30;33.30;;;;;;5049426;28;20178;-93
2022/04/01 08:47:47;;;;;;;1.43;1.33;;;23.30;33.50;;;;;;5048588;28;20175;-93
2022/04/01 08:50:13;;;;;;;1.87;1.40;;;23.20;33.60;;;;;;5049938;28;20173;-93
2022/04/01 08:52:40;;;;;;;1.40;1.30;;;23.00;33.70;;;;;;5049438;28;20547;-93
2022/04/01 08:55:08;;;;;;;1.53;1.33;;;22.80;33.80;;;;;;5047583;28;20456;-93
2022/04/01 08:57:39;;;;;;;2.00;1.30;;;22.50;34.10;;;;;;5050272;28;20553;-93
2022/04/01 09:00:22;;;;;;;1.57;1.47;;;22.30;34.20;;;;;;5050061;28;20174;-93
2022/04/01 09:03:16;;;;;;;1.57;1.40;;;22.20;34.30;;;;;;5048625;28;20175;-93
2022/04/01 09:05:50;;;;;;;1.50;1.30;;;21.90;34.50;;;;;;5047811;28;20182;-93
2022/04/01 09:08:35;;;;;;;2.30;1.30;;;21.80;34.70;;;;;;5050720;28;20540;-93
2022/04/01 09:11:08;;;;;;;1.90;1.50;;;21.60;34.80;;;;;;5048292;28;20209;-93
2022/04/01 09:13:50;;;;;;;2.13;1.20;;;21.60;34.80;;;;;;5047995;28;20179;-93
2022/04/01 09:16:21;;;;;;;1.33;1.23;;;21.60;34.90;;;;;;5049098;28;20290;-92
2022/04/01 09:18:47;;;;;;;1.40;1.30;;;21.60;34.90;;;;;;5048693;28;20176;-93
2022/04/01 09:21:14;;;;;;;1.63;1.30;;;21.60;34.80;;;;;;5047044;28;20175;-93
2022/04/01 09:23:48;;;;;;;1.73;1.40;;;21.70;34.70;;;;;;5048321;28;20186;-92
2022/04/01 09:26:19;;;;;;;1.90;1.47;;;21.80;34.50;;;;;;5046810;28;20179;-92
2022/04/01 09:28:45;;;;;;;1.43;1.30;;;22.00;34.40;;;;;;5048834;28;20252;-91
2022/04/01 09:31:13;;;;;;;1.40;1.30;;;22.10;34.20;;;;;;5046516;28;20211;-91
2022/04/01 09:33:53;;;;;;;1.50;1.40;;;22.50;34.10;;;;;;5046027;28;20184;-90
2022/04/01 09:36:26;;;;;;;1.50;1.40;;;22.80;33.80;;;;;;5046831;28;20282;-90
2022/04/01 09:38:58;;;;;;;1.43;1.30;;;22.80;33.60;;;;;;5046682;28;20526;-90
2022/04/01 09:41:36;;;;;;;1.90;1.53;;;23.00;33.50;;;;;;5045348;28;20182;-90
2022/04/01 09:44:04;;;;;;;1.67;1.57;;;23.20;33.40;;;;;;5047174;28;20428;-90
2022/04/01 09:46:30;;;;;;;1.50;1.40;;;23.40;33.40;;;;;;5046828;28;20488;-91
2022/04/01 09:48:58;;;;;;;1.37;1.20;;;23.50;33.00;;;;;;5046893;28;20445;-91
2022/04/01 09:51:30;;;;;;;2.13;1.63;;;23.50;33.00;;;;;;5045982;28;20199;-91
2022/04/01 09:54:02;;;;;;;2.30;1.30;;;23.60;33.00;;;;;;5045654;28;20298;-91
2022/04/01 09:56:42;;;;;;;2.07;1.30;;;23.70;32.90;;;;;;5046228;28;20201;-91
2022/04/01 09:59:35;;;;;;;1.70;1.43;;;23.80;32.80;;;;;;5046512;28;20176;-90
2022/04/01 10:02:01;;;;;;;2.10;1.40;;;23.70;33.20;;;;;;5046905;28;20192;-91
2022/04/01 10:04:27;;;;;;;2.40;1.33;;;23.50;32.90;;;;;;5044721;28;20210;-91
2022/04/01 10:06:54;;;;;;;1.60;1.30;;;23.60;33.00;;;;;;5046060;28;20175;-91
2022/04/01 10:09:23;;;;;;;1.70;1.37;;;23.50;33.10;;;;;;5044256;28;20176;-91
2022/04/01 10:11:51;;;;;;;1.63;1.43;;;23.50;33.00;;;;;;5043835;28;20218;-91
2022/04/01 10:14:20;;;;;;;1.70;1.50;;;23.30;33.10;;;;;;5045164;28;20178;-91
2022/04/01 10:16:49;;;;;;;1.50;1.40;;;23.10;33.30;;;;;;5045325;28;20207;-91
2022/04/01 10:19:30;;;;;;;1.50;1.40;;;23.00;33.50;;;;;;5046203;28;20175;-89
2022/04/01 10:21:57;;;;;;;2.43;1.60;;;22.80;33.60;;;;;;5046085;28;20261;-90
2022/04/01 10:24:38;;;;;;;1.70;1.43;;;22.70;33.60;;;;;;5046127;28;20285;-90
2022/04/01 10:27:07;;;;;;;1.40;1.30;;;22.60;33.70;;;;;;5046294;28;20435;-91
2022/04/01 10:29:34;;;;;;;2.73;1.60;;;22.40;33.80;;;;;;5045649;28;20563;-90
2022/04/01 10:32:21;;;;;;;2.93;1.40;;;22.30;33.90;;;;;;5045182;28;20794;-90
2022/04/01 10:34:47;;;;;;;1.57;1.47;;;22.20;34.00;;;;;;5044782;28;20179;-90
2022/04/01 10:37:16;;;;;;;2.57;1.63;;;22.20;34.00;;;;;;5047284;28;20180;-91
2022/04/01 10:39:58;;;;;;;2.57;1.40;;;22.10;34.10;;;;;;5045438;28;20260;-92
2022/04/01 10:42:27;;;;;;;1.50;1.40;;;22.00;34.20;;;;;;5046120;28;20292;-91
2022/04/01 10:45:03;;;;;;;2.10;1.30;;;22.00;34.20;;;;;;5045831;28;20177;-93
2022/04/01 10:53:33;;;;;;;3.60;1.60;;;22.10;34.20;;;;;;5050406;28;20185;-92
2022/04/01 10:56:21;;;;;;;2.60;1.70;;;22.30;34.10;;;;;;5049744;28;20186;-91
2022/04/01 10:59:05;;;;;;;2.43;1.80;;;22.40;33.90;;;;;;5049525;28;20189;-92
2022/04/01 11:01:32;;;;;;;2.70;1.60;;;22.20;34.00;;;;;;5047980;28;20244;-91
2022/04/01 11:04:08;;;;;;;2.23;1.63;;;21.80;34.20;;;;;;5047538;28;20204;-91
2022/04/01 11:06:58;;;;;;;1.63;1.53;;;21.40;34.50;;;;;;5046671;28;20208;-92
2022/04/01 11:09:38;;;;;;;2.30;1.90;;;20.70;35.00;;;;;;5049721;28;20182;-90
2022/04/01 11:12:19;;;;;;;2.53;1.77;;;20.40;35.30;;;;;;5046805;28;20217;-90
2022/04/01 11:17:47;;;;;;;2.57;1.53;;;20.20;35.80;;;;;;5047519;28;20186;-91
2022/04/01 11:20:19;;;;;;;1.60;1.50;;;21.10;35.30;;;;;;5044676;28;20287;-90
2022/04/01 11:22:54;;;;;;;1.57;1.47;;;21.60;34.60;;;;;;5047423;28;20182;-90
2022/04/01 11:25:27;;;;;;;2.10;1.57;;;22.20;34.30;;;;;;5047330;28;20177;-91
2022/04/01 11:28:01;;;;;;;1.60;1.50;;;22.60;33.80;;;;;;5047273;28;20238;-90
2022/04/01 11:30:35;;;;;;;2.30;1.50;;;22.80;33.60;;;;;;5045790;28;20180;-90
2022/04/01 11:33:12;;;;;;;1.90;1.50;;;23.30;33.30;;;;;;5046148;28;20321;-90
2022/04/01 11:35:41;;;;;;;2.07;1.70;;;23.50;33.00;;;;;;5047280;28;20186;-90
2022/04/01 11:38:13;;;;;;;2.13;1.53;;;23.80;32.80;;;;;;5048315;28;20177;-90
2022/04/01 11:40:40;;;;;;;2.20;1.60;;;23.80;32.80;;;;;;5047422;28;20401;-90
2022/04/01 11:43:11;;;;;;;2.57;1.73;;;23.70;32.90;;;;;;5048662;28;20457;-93
2022/04/01 11:45:50;;;;;;;2.00;1.60;;;23.80;32.80;;;;;;5047218;28;20461;-93
2022/04/01 11:48:26;;;;;;;3.30;1.90;;;24.10;32.80;;;;;;5046196;28;20207;-93
2022/04/01 11:50:55;;;;;;;2.40;1.50;;;24.00;32.70;;;;;;5047616;28;20215;-93
2022/04/01 11:53:31;;;;;;;2.57;1.93;;;23.90;32.80;;;;;;5048569;28;20184;-93
2022/04/01 11:55:59;;;;;;;1.70;1.60;;;23.60;32.90;;;;;;5048112;28;20196;-93
2022/04/01 11:58:36;;;;;;;2.07;1.83;;;23.60;33.00;;;;;;5047886;28;20760;-93
2022/04/01 12:01:02;;;;;;;2.00;1.60;;;23.60;33.00;;;;;;5049051;28;20405;-93
2022/04/01 12:03:29;;;;;;;3.03;1.60;;;23.30;33.10;;;;;;5049307;28;20192;-93
2022/04/01 12:08:41;;;;;;;2.00;1.60;;;23.10;33.40;;;;;;5050550;28;20210;-93
2022/04/01 12:08:42;;;;;;;1.93;1.70;;;22.80;33.60;;;;;;5047858;28;20349;-93
2022/04/01 12:11:09;;;;;;;3.73;1.83;;;22.30;33.90;;;;;;5049493;28;20208;-93
2022/04/01 12:13:40;;;;;;;2.13;1.70;;;22.00;34.20;;;;;;5048463;28;20206;-93
2022/04/01 12:16:06;;;;;;;3.10;1.50;;;21.70;34.50;;;;;;5049452;28;20422;-93
2022/04/01 12:18:33;;;;;;;2.20;2.00;;;21.40;34.80;;;;;;5048517;28;20247;-91
2022/04/01 12:21:01;;;;;;;2.57;2.23;;;21.20;35.00;;;;;;5047514;28;20383;-92
2022/04/01 12:23:32;;;;;;;2.10;1.90;;;21.00;35.20;;;;;;5046495;28;20187;-92
2022/04/01 12:25:59;;;;;;;2.20;2.00;;;20.80;35.40;;;;;;5047176;28;20470;-93
2022/04/01 12:28:39;;;;;;;1.73;1.53;;;20.80;35.40;;;;;;5048127;28;20182;-92
2022/04/01 12:31:05;;;;;;;2.17;1.70;;;20.80;35.40;;;;;;5046753;28;20214;-94
2022/04/01 12:33:33;;;;;;;1.80;1.60;;;20.70;35.50;;;;;;5047736;28;20192;-92
2022/04/01 12:36:07;;;;;;;2.83;1.80;;;20.10;36.00;;;;;;5045684;28;20256;-93
2022/04/01 12:38:41;;;;;;;1.97;1.70;;;19.90;36.40;;;;;;5045476;28;20485;-93
2022/04/01 12:41:17;;;;;;;3.03;1.83;;;19.60;36.80;;;;;;5047504;28;20507;-94
2022/04/01 12:43:45;;;;;;;2.07;1.80;;;19.20;37.10;;;;;;5048317;28;20176;-92
2022/04/01 12:46:23;;;;;;;3.53;2.07;;;18.90;37.30;;;;;;5047436;28;20174;-92
2022/04/01 12:48:54;;;;;;;2.60;1.90;;;18.70;37.50;;;;;;5047955;28;20243;-92
2022/04/01 12:51:26;;;;;;;2.17;1.70;;;18.80;37.60;;;;;;5046718;28;20471;-91
2022/04/01 12:53:55;;;;;;;2.40;1.80;;;20.30;36.80;;;;;;5045370;28;20505;-90
2022/04/01 12:56:24;;;;;;;2.20;1.80;;;21.90;35.20;;;;;;5045124;28;20174;-91
2022/04/01 12:58:52;;;;;;;1.87;1.63;;;22.40;34.40;;;;;;5045605;28;20183;-92
2022/04/01 13:01:29;;;;;;;3.23;1.83;;;22.10;34.50;;;;;;5045706;28;20178;-92
2022/04/01 13:03:56;;;;;;;2.13;1.67;;;22.40;34.40;;;;;;5047724;28;20214;-92
2022/04/01 13:06:34;;;;;;;2.20;1.70;;;22.70;34.20;;;;;;5046843;28;20447;-91
2022/04/01 13:09:09;;;;;;;2.00;1.80;;;23.20;33.90;;;;;;5045001;28;20450;-93
2022/04/01 13:11:46;;;;;;;3.27;1.80;;;23.30;33.60;;;;;;5045111;28;20324;-91
2022/04/01 13:14:24;;;;;;;2.27;1.90;;;23.60;33.40;;;;;;5044611;28;20257;-91
2022/04/01 13:16:52;;;;;;;2.27;1.70;;;23.60;33.40;;;;;;5044562;28;20258;-92
2022/04/01 13:19:30;;;;;;;2.43;1.80;;;23.70;33.40;;;;;;5046511;28;20194;-92
2022/04/01 13:22:02;;;;;;;2.30;1.90;;;23.50;33.50;;;;;;5048299;28;20425;-93
2022/04/01 13:24:37;;;;;;;2.80;1.83;;;24.00;33.50;;;;;;5046144;28;20683;-92